createdAt,value
2023-04-04T08:43:22.297Z,69.87
2023-04-04T08:43:33.995Z,69.87
2023-04-04T08:43:43.284Z,70.07
2023-04-04T08:43:53.656Z,69.46
2023-04-04T08:44:03.765Z,69.57
2023-04-04T08:44:13.715Z,68.75
2023-04-04T08:44:23.843Z,68.44
2023-04-04T08:44:34.010Z,66.82
2023-04-04T08:44:44.137Z,66.00
2023-04-04T08:44:54.209Z,65.70
2023-04-04T08:45:04.375Z,66.21
2023-04-04T08:45:14.439Z,67.13
2023-04-04T08:45:24.574Z,69.36
2023-04-04T08:45:34.742Z,70.86
2023-04-04T08:45:44.900Z,72.08
2023-04-04T08:45:55.037Z,71.67
2023-04-04T08:46:05.120Z,70.96
2023-04-04T08:46:15.359Z,69.84
2023-04-04T08:46:25.377Z,68.01
2023-04-04T08:46:35.617Z,68.21
2023-04-04T08:46:45.861Z,68.11
2023-04-04T08:46:55.885Z,70.35
2023-04-04T08:47:06.071Z,72.17
2023-04-04T08:47:16.115Z,71.67
2023-04-04T08:47:26.219Z,70.96
2023-04-04T08:47:36.538Z,70.45
2023-04-04T08:47:46.578Z,69.94
2023-04-04T08:47:56.666Z,69.74
2023-04-04T08:48:06.827Z,69.53
2023-04-04T08:48:16.894Z,69.13
2023-04-04T08:48:27.031Z,68.52
2023-04-04T08:48:37.183Z,69.13
2023-04-04T08:48:47.300Z,68.92
2023-04-04T08:48:57.539Z,68.92
2023-04-04T08:49:07.555Z,68.52
2023-04-04T08:49:17.685Z,68.82
2023-04-04T08:49:27.956Z,69.13
2023-04-04T08:49:38.114Z,70.35
2023-04-04T08:49:48.197Z,70.01
2023-04-04T08:49:58.291Z,69.94
2023-04-04T08:50:08.397Z,71.64
2023-04-04T08:50:18.511Z,72.25
2023-04-04T08:50:28.674Z,72.55
2023-04-04T08:50:39.063Z,73.67
2023-04-04T08:50:48.929Z,72.04
2023-04-04T08:50:59.084Z,71.33
2023-04-04T08:51:09.140Z,69.70
2023-04-04T08:51:19.362Z,68.28
2023-04-04T08:51:29.964Z,69.30
2023-04-04T08:51:39.547Z,69.50
2023-04-04T08:51:49.683Z,68.69
2023-04-04T08:51:59.973Z,68.89
2023-04-04T08:52:09.913Z,70.01
2023-04-04T08:52:20.127Z,71.53
2023-04-04T08:52:30.288Z,72.45
2023-04-04T08:52:40.413Z,71.33
2023-04-04T08:52:50.531Z,70.72
2023-04-04T08:53:00.627Z,69.40
2023-04-04T08:53:10.768Z,68.28
2023-04-04T08:53:21.589Z,69.30
2023-04-04T08:53:31.875Z,70.18
2023-04-04T08:53:41.287Z,71.30
2023-04-04T08:53:51.243Z,71.40
2023-04-04T08:54:01.448Z,70.55
2023-04-04T08:54:11.486Z,70.86
2023-04-04T08:54:21.516Z,71.06
2023-04-04T08:54:41.780Z,69.17
2023-04-04T08:54:51.904Z,68.45
2023-04-04T08:55:02.092Z,68.66
2023-04-04T08:55:12.192Z,69.17
2023-04-04T08:55:22.334Z,69.57
2023-04-04T08:55:32.377Z,69.70
2023-04-04T08:55:42.555Z,68.89
2023-04-04T08:55:52.571Z,68.69
2023-04-04T08:56:02.812Z,69.30
2023-04-04T08:56:12.851Z,70.21
2023-04-04T08:56:23.070Z,69.20
2023-04-04T08:56:33.176Z,69.91
2023-04-04T08:56:43.329Z,70.72
2023-04-04T08:56:53.451Z,71.12
2023-04-04T08:57:03.457Z,71.03
2023-04-04T08:57:13.531Z,70.62
2023-04-04T08:57:23.731Z,70.31
2023-04-04T08:57:33.897Z,71.23
2023-04-04T08:57:44.352Z,70.42
2023-04-04T08:57:54.011Z,68.99
2023-04-04T08:58:04.152Z,69.81
2023-04-04T08:58:14.259Z,72.45
2023-04-04T08:58:24.451Z,73.46
2023-04-04T08:58:34.430Z,72.25
2023-04-04T08:58:44.571Z,71.12
2023-04-04T08:58:54.761Z,70.42
2023-04-04T08:59:05.002Z,70.72
2023-04-04T08:59:15.118Z,69.81
2023-04-04T08:59:25.073Z,68.99
2023-04-04T08:59:35.248Z,68.69
2023-04-04T08:59:45.313Z,67.88
2023-04-04T08:59:55.495Z,67.44
2023-04-04T09:00:05.827Z,67.13
2023-04-04T09:00:15.670Z,66.83
2023-04-04T09:00:25.819Z,66.12
2023-04-04T09:00:35.919Z,65.91
2023-04-04T09:00:46.611Z,65.68
2023-04-04T09:00:56.153Z,66.19
2023-04-04T09:01:06.299Z,66.39
2023-04-04T09:01:16.372Z,66.19
2023-04-04T09:01:26.653Z,65.68
2023-04-04T09:01:36.667Z,65.07
2023-04-04T09:01:46.838Z,65.68
2023-04-04T09:01:56.950Z,66.49
2023-04-04T09:02:07.055Z,66.29
2023-04-04T09:02:17.209Z,65.78
2023-04-04T09:02:27.304Z,66.49
2023-04-04T09:02:37.366Z,66.83
2023-04-04T09:02:47.501Z,66.83
2023-04-04T09:02:57.648Z,67.24
2023-04-04T09:03:08.037Z,66.72
2023-04-04T09:03:17.804Z,67.03
2023-04-04T09:03:28.124Z,67.27
2023-04-04T09:03:38.073Z,67.97
2023-04-04T09:03:48.251Z,68.38
2023-04-04T09:03:58.333Z,67.77
2023-04-04T09:04:08.507Z,67.77
2023-04-04T09:04:18.449Z,67.97
2023-04-04T09:04:28.685Z,68.69
2023-04-04T09:04:38.860Z,68.99
2023-04-04T09:04:58.459Z,68.69
2023-04-04T09:05:11.252Z,69.30
2023-04-04T09:05:17.130Z,69.40
2023-04-04T09:05:27.235Z,69.09
2023-04-04T09:05:37.417Z,69.40
2023-04-04T09:05:47.536Z,69.20
2023-04-04T09:05:57.829Z,68.79
2023-04-04T09:06:18.003Z,70.01
2023-04-04T09:06:27.994Z,71.03
2023-04-04T09:06:38.191Z,70.31
2023-04-04T09:06:48.235Z,68.59
2023-04-04T09:06:58.405Z,67.97
2023-04-04T09:07:08.452Z,68.49
2023-04-04T09:07:18.714Z,70.52
2023-04-04T09:07:28.715Z,71.43
2023-04-04T09:07:39.836Z,72.04
2023-04-04T09:07:49.508Z,70.31
2023-04-04T09:07:59.131Z,68.89
2023-04-04T09:08:09.173Z,69.91
2023-04-04T09:08:19.383Z,72.65
2023-04-04T09:08:29.420Z,75.19
2023-04-04T09:08:39.582Z,74.75
2023-04-04T09:08:51.574Z,73.22
2023-04-04T09:08:59.817Z,71.60
2023-04-04T09:09:09.947Z,70.08
2023-04-04T09:09:20.059Z,69.17
2023-04-04T09:09:30.270Z,67.74
2023-04-04T09:09:40.265Z,67.33
2023-04-04T09:10:00.516Z,67.10
2023-04-04T09:10:10.591Z,67.61
2023-04-04T09:10:20.938Z,68.42
2023-04-04T09:10:30.972Z,68.93
2023-04-04T09:10:41.231Z,69.54
2023-04-04T09:10:51.061Z,67.84
2023-04-04T09:11:01.260Z,67.74
2023-04-04T09:11:11.297Z,68.25
2023-04-04T09:11:21.525Z,67.64
2023-04-04T09:11:31.459Z,67.84
2023-04-04T09:11:41.748Z,68.66
2023-04-04T09:11:51.890Z,69.20
2023-04-04T09:12:01.994Z,70.08
2023-04-04T09:12:12.141Z,71.80
2023-04-04T09:12:22.331Z,72.31
2023-04-04T09:12:32.348Z,73.39
2023-04-04T09:12:42.623Z,73.16
2023-04-04T09:12:53.943Z,71.33
2023-04-04T09:13:14.932Z,69.47
2023-04-04T09:13:22.237Z,67.55
2023-04-04T09:13:28.297Z,67.41
2023-04-04T09:13:40.241Z,67.21
2023-04-04T09:13:48.487Z,66.06
2023-04-04T09:13:58.999Z,65.66
2023-04-04T09:14:08.865Z,65.45
2023-04-04T09:14:28.896Z,63.63
2023-04-04T09:14:39.114Z,63.40
2023-04-04T09:14:49.922Z,62.99
2023-04-04T09:14:59.332Z,63.09
2023-04-04T09:15:09.420Z,63.20
2023-04-04T09:15:19.495Z,64.01
2023-04-04T09:15:29.763Z,65.32
2023-04-04T09:15:39.775Z,66.81
2023-04-04T09:16:00.005Z,64.45
2023-04-04T09:16:10.167Z,64.02
2023-04-04T09:16:20.319Z,64.49
2023-04-04T09:16:30.381Z,62.24
2023-04-04T09:16:40.747Z,60.09
2023-04-04T09:16:50.845Z,59.08
2023-04-04T09:17:00.716Z,58.80
2023-04-04T09:17:10.892Z,58.70
2023-04-04T09:17:20.992Z,58.80
2023-04-04T09:17:31.123Z,58.60
2023-04-04T09:17:41.211Z,58.80
2023-04-04T09:17:51.386Z,59.14
2023-04-04T09:18:01.540Z,59.74
2023-04-04T09:18:11.937Z,60.35
2023-04-04T09:18:21.694Z,60.35
2023-04-04T09:18:31.913Z,60.07
2023-04-04T09:18:41.969Z,59.87
2023-04-04T09:18:52.065Z,60.07
2023-04-04T09:19:02.234Z,59.70
2023-04-04T09:19:12.320Z,60.00
2023-04-04T09:19:23.842Z,60.81
2023-04-04T09:19:32.553Z,60.91
2023-04-04T09:19:42.789Z,60.91
2023-04-04T09:19:52.860Z,60.98
2023-04-04T09:20:03.035Z,60.88
2023-04-04T09:20:13.039Z,61.08
2023-04-04T09:20:23.157Z,61.29
2023-04-04T09:20:33.209Z,61.49
2023-04-04T09:20:43.716Z,61.46
2023-04-04T09:20:53.466Z,61.29
2023-04-04T09:21:03.596Z,61.08
2023-04-04T09:21:13.947Z,60.55
2023-04-04T09:21:23.827Z,60.55
2023-04-04T09:21:33.825Z,60.55
2023-04-04T09:21:43.995Z,61.16
2023-04-04T09:21:54.187Z,61.16
2023-04-04T09:22:04.376Z,61.05
2023-04-04T09:22:14.619Z,61.25
2023-04-04T09:22:24.643Z,61.46
2023-04-04T09:22:34.767Z,61.76
2023-04-04T09:22:44.879Z,61.73
2023-04-04T09:22:55.022Z,61.23
2023-04-04T09:23:05.139Z,61.13
2023-04-04T09:23:15.299Z,60.52
2023-04-04T09:23:25.538Z,60.19
2023-04-04T09:23:35.456Z,59.78
2023-04-04T09:23:45.661Z,59.28
2023-04-04T09:23:55.768Z,59.08
2023-04-04T09:24:05.870Z,58.78
2023-04-04T09:24:15.961Z,58.95
2023-04-04T09:24:26.208Z,60.57
2023-04-04T09:24:36.224Z,61.88
2023-04-04T09:24:46.510Z,63.59
2023-04-04T09:24:56.539Z,63.39
2023-04-04T09:25:06.711Z,62.59
2023-04-04T09:25:16.817Z,62.25
2023-04-04T09:25:26.922Z,61.75
2023-04-04T09:25:37.051Z,61.11
2023-04-04T09:25:56.552Z,61.61
2023-04-04T09:26:08.896Z,59.97
2023-04-04T09:26:14.808Z,56.95
2023-04-04T09:26:24.833Z,56.75
2023-04-04T09:26:35.017Z,56.92
2023-04-04T09:26:45.174Z,57.00
2023-04-04T09:26:55.258Z,57.50
2023-04-04T09:27:15.428Z,55.96
2023-04-04T09:27:25.714Z,55.46
2023-04-04T09:27:35.676Z,55.26
2023-04-04T09:27:45.758Z,55.16
2023-04-04T09:27:55.964Z,55.13
2023-04-04T09:28:06.077Z,54.93
2023-04-04T09:28:16.256Z,55.31
2023-04-04T09:28:26.343Z,54.10
2023-04-04T09:28:36.627Z,55.08
2023-04-04T09:28:46.734Z,56.19
2023-04-04T09:28:56.876Z,55.48
2023-04-04T09:29:06.894Z,54.17
2023-04-04T09:29:16.993Z,53.77
2023-04-04T09:29:27.147Z,53.17
2023-04-04T09:29:37.238Z,54.38
2023-04-04T09:29:47.375Z,54.65
2023-04-04T09:29:57.490Z,53.14
2023-04-04T09:30:07.598Z,52.32
2023-04-04T09:30:17.674Z,52.59
2023-04-04T09:30:27.745Z,53.39
2023-04-04T09:30:37.971Z,54.07
2023-04-04T09:30:48.005Z,53.17
2023-04-04T09:30:58.068Z,52.37
2023-04-04T09:31:08.255Z,52.87
2023-04-04T09:31:18.375Z,53.47
2023-04-04T09:31:28.605Z,53.27
2023-04-04T09:31:38.707Z,51.17
2023-04-04T09:31:48.810Z,50.06
2023-04-04T09:31:58.945Z,49.86
2023-04-04T09:32:09.046Z,49.88
2023-04-04T09:32:19.414Z,50.29
2023-04-04T09:32:29.226Z,50.48
2023-04-04T09:32:39.383Z,50.48
2023-04-04T09:32:49.555Z,51.09
2023-04-04T09:32:59.752Z,50.99
2023-04-04T09:33:09.827Z,50.89
2023-04-04T09:33:20.026Z,50.79
2023-04-04T09:33:30.063Z,50.59
2023-04-04T09:33:40.247Z,50.38
2023-04-04T09:33:50.417Z,49.91
2023-04-04T09:34:00.620Z,50.11
2023-04-04T09:34:10.746Z,50.81
2023-04-04T09:34:20.783Z,51.11
2023-04-04T09:34:31.191Z,50.81
2023-04-04T09:34:41.165Z,51.01
2023-04-04T09:34:51.242Z,51.01
2023-04-04T09:35:01.401Z,50.93
2023-04-04T09:35:11.486Z,51.51
2023-04-04T09:35:21.667Z,51.64
2023-04-04T09:35:31.652Z,51.94
2023-04-04T09:35:41.934Z,51.74
2023-04-04T09:35:52.124Z,51.74
2023-04-04T09:36:02.158Z,51.84
2023-04-04T09:36:12.293Z,52.04
2023-04-04T09:36:22.487Z,52.44
2023-04-04T09:36:32.580Z,53.14
2023-04-04T09:36:42.783Z,52.57
2023-04-04T09:36:52.818Z,52.17
2023-04-04T09:37:02.913Z,51.99
2023-04-04T09:37:12.993Z,52.49
2023-04-04T09:37:23.159Z,53.32
2023-04-04T09:37:33.244Z,54.60
2023-04-04T09:37:43.382Z,54.91
2023-04-04T09:37:53.539Z,54.80
2023-04-04T09:38:03.694Z,54.98
2023-04-04T09:38:13.759Z,53.97
2023-04-04T09:38:24.014Z,53.77
2023-04-04T09:38:34.012Z,53.88
2023-04-04T09:38:44.101Z,53.25
2023-04-04T09:38:54.200Z,52.74
2023-04-04T09:39:04.345Z,52.37
2023-04-04T09:39:14.490Z,52.47
2023-04-04T09:39:24.783Z,52.64
2023-04-04T09:39:34.800Z,52.67
2023-04-04T09:39:44.815Z,52.26
2023-04-04T09:39:55.022Z,52.57
2023-04-04T09:40:05.081Z,53.00
2023-04-04T09:40:15.133Z,53.09
2023-04-04T09:40:25.264Z,53.72
2023-04-04T09:40:35.380Z,53.75
2023-04-04T09:40:45.575Z,54.05
2023-04-04T09:40:55.600Z,54.79
2023-04-04T09:41:05.853Z,54.99
2023-04-04T09:41:15.979Z,55.21
2023-04-04T09:41:26.042Z,55.54
2023-04-04T09:41:36.091Z,56.27
2023-04-04T09:41:46.230Z,57.08
2023-04-04T09:41:56.434Z,58.22
2023-04-04T09:42:06.506Z,58.42
2023-04-04T09:42:16.618Z,58.22
2023-04-04T09:42:26.711Z,58.14
2023-04-04T09:42:36.816Z,58.45
2023-04-04T09:42:47.102Z,58.75
2023-04-04T09:42:57.215Z,59.38
2023-04-04T09:43:07.454Z,59.89
2023-04-04T09:43:17.341Z,60.19
2023-04-04T09:43:27.438Z,60.32
2023-04-04T09:43:37.647Z,60.12
2023-04-04T09:43:47.719Z,59.94
2023-04-04T09:43:57.793Z,60.48
2023-04-04T09:44:07.883Z,61.52
2023-04-04T09:44:18.089Z,62.02
2023-04-04T09:44:28.129Z,62.33
2023-04-04T09:44:38.227Z,62.33
2023-04-04T09:44:48.588Z,62.23
2023-04-04T09:44:58.542Z,62.43
2023-04-04T09:45:08.773Z,62.63
2023-04-04T09:45:29.634Z,62.66
2023-04-04T09:45:37.655Z,62.35
2023-04-04T09:45:43.712Z,62.56
2023-04-04T09:45:53.709Z,62.66
2023-04-04T09:46:03.780Z,62.66
2023-04-04T09:46:13.951Z,62.56
2023-04-04T09:46:24.094Z,62.66
2023-04-04T09:46:44.365Z,62.56
2023-04-04T09:46:54.375Z,62.56
2023-04-04T09:47:04.540Z,62.86
2023-04-04T09:47:18.311Z,62.86
2023-04-04T09:47:33.372Z,62.35
2023-04-04T09:47:39.312Z,61.55
2023-04-04T09:47:49.572Z,61.82
2023-04-04T09:47:59.589Z,62.63
2023-04-04T09:48:09.876Z,63.51
2023-04-04T09:48:19.738Z,63.81
2023-04-04T09:48:40.181Z,61.96
2023-04-04T09:48:50.112Z,61.43
2023-04-04T09:49:00.303Z,60.62
2023-04-04T09:49:12.933Z,60.32
2023-04-04T09:49:20.505Z,60.93
2023-04-04T09:49:30.605Z,61.33
2023-04-04T09:49:40.707Z,61.53
2023-04-04T09:49:50.956Z,62.34
2023-04-04T09:50:01.014Z,62.21
2023-04-04T09:50:11.241Z,61.20
2023-04-04T09:50:21.224Z,60.26
2023-04-04T09:50:31.440Z,59.76
2023-04-04T09:50:41.755Z,59.05
2023-04-04T09:50:51.588Z,59.25
2023-04-04T09:51:01.719Z,59.45
2023-04-04T09:51:11.945Z,59.56
2023-04-04T09:51:21.936Z,59.12
2023-04-04T09:51:32.084Z,58.42
2023-04-04T09:51:42.306Z,58.45
